createdAt,value
2022-09-28T00:03:41.531Z,9.93
2022-09-28T00:06:11.957Z,13.65
2022-09-28T00:11:12.434Z,10.68
2022-09-28T00:13:40.413Z,8.25
2022-09-28T00:16:13.279Z,13.02
2022-09-28T00:18:40.766Z,7.28
2022-09-28T00:21:16.235Z,11.63
2022-09-28T00:24:02.177Z,12.98
2022-09-28T00:26:30.951Z,11.20
2022-09-28T00:29:00.074Z,11.38
2022-09-28T00:31:30.198Z,11.23
2022-09-28T00:36:27.037Z,12.90
2022-09-28T00:38:58.119Z,9.73
2022-09-28T00:41:26.749Z,7.72
2022-09-28T00:43:54.514Z,9.32
2022-09-28T00:46:31.195Z,7.55
2022-09-28T00:49:03.243Z,13.05
2022-09-28T00:51:31.639Z,11.68
2022-09-28T00:54:00.447Z,10.38
2022-09-28T00:56:29.516Z,10.40
2022-09-28T00:58:57.828Z,8.35
2022-09-28T01:01:25.409Z,8.05
2022-09-28T01:03:53.765Z,8.80
2022-09-28T01:06:24.104Z,12.82
2022-09-28T01:08:52.268Z,10.43
2022-09-28T01:11:19.832Z,10.05
2022-09-28T01:13:50.048Z,11.50
2022-09-28T01:16:40.599Z,9.63
2022-09-28T01:19:45.737Z,10.20
2022-09-28T01:22:37.493Z,10.20
2022-09-28T01:25:23.772Z,16.48
2022-09-28T01:27:54.459Z,13.80
2022-09-28T01:30:21.987Z,15.07
2022-09-28T01:32:54.675Z,10.98
2022-09-28T01:35:39.440Z,11.75
2022-09-28T01:38:14.220Z,11.77
2022-09-28T01:40:42.148Z,10.18
2022-09-28T01:43:37.183Z,8.38
2022-09-28T01:46:14.111Z,12.00
2022-09-28T01:48:46.722Z,8.30
2022-09-28T01:51:21.097Z,8.68
2022-09-28T01:53:53.811Z,9.70
2022-09-28T01:56:30.199Z,12.77
2022-09-28T01:59:06.532Z,8.48
2022-09-28T02:01:50.878Z,10.98
2022-09-28T02:04:21.731Z,11.77
2022-09-28T02:06:54.373Z,8.05
2022-09-28T02:09:33.093Z,10.48
2022-09-28T02:12:10.129Z,9.85
2022-09-28T02:14:39.879Z,9.95
2022-09-28T02:17:07.489Z,13.13
2022-09-28T02:19:35.482Z,8.80
2022-09-28T02:22:14.603Z,12.63
2022-09-28T02:24:59.688Z,10.63
2022-09-28T02:27:37.766Z,10.27
2022-09-28T02:30:06.485Z,9.85
2022-09-28T02:32:35.801Z,8.88
2022-09-28T02:35:03.407Z,15.52
2022-09-28T02:37:31.043Z,10.45
2022-09-28T02:39:58.814Z,10.65
2022-09-28T02:42:34.876Z,10.27
2022-09-28T02:45:27.114Z,11.07
2022-09-28T02:48:55.702Z,11.52
2022-09-28T02:51:20.538Z,9.95
2022-09-28T02:54:16.652Z,12.38
2022-09-28T02:57:13.857Z,10.50
2022-09-28T03:00:02.420Z,10.27
2022-09-28T03:02:57.307Z,10.38
2022-09-28T03:05:53.079Z,9.98
2022-09-28T03:08:29.584Z,9.55
2022-09-28T03:11:07.751Z,11.07
2022-09-28T03:13:35.517Z,13.05
2022-09-28T03:16:20.618Z,10.68
2022-09-28T03:18:49.933Z,8.40
2022-09-28T03:21:17.254Z,12.68
2022-09-28T03:23:44.491Z,8.30
2022-09-28T03:26:12.738Z,14.68
2022-09-28T03:28:40.707Z,13.05
2022-09-28T03:31:11.956Z,13.32
2022-09-28T03:33:39.336Z,12.27
2022-09-28T03:36:08.705Z,14.13
2022-09-28T03:38:36.780Z,9.65
2022-09-28T03:41:04.282Z,11.98
2022-09-28T03:43:35.494Z,10.07
2022-09-28T03:46:03.846Z,9.05
2022-09-28T03:48:37.104Z,17.52
2022-09-28T03:51:06.951Z,12.52
2022-09-28T03:53:34.143Z,7.90
2022-09-28T03:56:06.248Z,12.25
2022-09-28T03:58:34.116Z,11.15
2022-09-28T04:01:06.894Z,13.95
2022-09-28T04:03:34.243Z,7.53
2022-09-28T04:06:01.560Z,11.02
2022-09-28T04:08:28.999Z,11.68
2022-09-28T04:10:57.783Z,10.65
2022-09-28T04:13:26.081Z,10.20
2022-09-28T04:15:54.846Z,11.82
2022-09-28T04:18:22.695Z,8.65
2022-09-28T04:21:08.870Z,13.55
2022-09-28T04:23:41.542Z,10.13
2022-09-28T04:26:32.771Z,10.52
2022-09-28T04:29:18.979Z,11.07
2022-09-28T04:31:57.258Z,8.77
2022-09-28T04:34:37.112Z,9.00
2022-09-28T04:37:06.072Z,10.02
2022-09-28T04:39:33.439Z,9.30
2022-09-28T04:42:01.162Z,8.23
2022-09-28T04:44:29.110Z,7.63
2022-09-28T04:47:04.838Z,8.15
2022-09-28T04:49:33.804Z,9.57
2022-09-28T04:52:11.670Z,11.52
2022-09-28T04:54:41.050Z,13.00
2022-09-28T04:57:08.435Z,9.27
2022-09-28T04:59:37.639Z,11.65
2022-09-28T05:02:05.704Z,12.23
2022-09-28T05:04:59.601Z,8.07
2022-09-28T05:07:27.026Z,12.70
2022-09-28T05:09:55.900Z,8.65
2022-09-28T05:12:23.680Z,9.93
2022-09-28T05:14:50.905Z,12.70
2022-09-28T05:17:18.715Z,9.38
2022-09-28T05:19:45.864Z,10.13
2022-09-28T05:22:15.031Z,12.55
2022-09-28T05:24:46.828Z,13.00
2022-09-28T05:27:15.080Z,12.18
2022-09-28T05:29:45.884Z,10.82
2022-09-28T05:32:31.806Z,13.65
2022-09-28T05:35:11.182Z,10.85
2022-09-28T05:37:42.227Z,10.68
2022-09-28T05:40:10.122Z,12.60
2022-09-28T05:42:39.084Z,10.43
2022-09-28T05:45:06.848Z,9.85
2022-09-28T05:47:42.292Z,14.50
2022-09-28T05:50:15.998Z,13.60
2022-09-28T05:52:43.974Z,10.35
2022-09-28T05:55:11.424Z,10.27
2022-09-28T05:57:38.878Z,10.70
2022-09-28T06:00:09.241Z,12.07
2022-09-28T06:03:08.543Z,11.15
2022-09-28T06:05:37.032Z,10.98
2022-09-28T06:08:07.247Z,9.60
2022-09-28T06:10:35.397Z,12.25
2022-09-28T06:13:03.370Z,10.77
2022-09-28T06:15:31.937Z,12.32
2022-09-28T06:18:10.641Z,10.82
2022-09-28T06:21:02.954Z,12.65
2022-09-28T06:23:44.550Z,11.95
2022-09-28T06:26:14.412Z,12.75
2022-09-28T06:28:41.645Z,12.05
2022-09-28T06:31:09.779Z,13.43
2022-09-28T06:33:44.139Z,10.73
2022-09-28T06:36:13.730Z,15.98
2022-09-28T06:38:40.925Z,11.00
2022-09-28T06:41:08.910Z,12.70
2022-09-28T06:43:39.558Z,11.07
2022-09-28T06:46:14.128Z,9.98
2022-09-28T06:48:50.676Z,15.57
2022-09-28T06:51:22.307Z,9.40
2022-09-28T06:53:56.476Z,11.93
2022-09-28T06:56:59.244Z,11.98
2022-09-28T06:59:26.677Z,14.07
2022-09-28T07:01:54.143Z,13.07
2022-09-28T07:04:44.663Z,13.43
2022-09-28T07:07:44.796Z,13.70
2022-09-28T07:10:42.600Z,14.63
2022-09-28T07:13:46.654Z,10.90
2022-09-28T07:16:15.983Z,13.43
2022-09-28T07:18:43.240Z,13.38
2022-09-28T07:21:21.910Z,11.93
2022-09-28T07:23:54.490Z,15.07
2022-09-28T07:26:25.647Z,12.40
2022-09-28T07:29:06.197Z,10.73
2022-09-28T07:31:57.231Z,12.85
2022-09-28T07:34:46.354Z,13.77
2022-09-28T07:37:29.027Z,12.93
2022-09-28T07:40:15.581Z,11.70
2022-09-28T07:42:42.971Z,8.55
2022-09-28T07:45:11.733Z,16.10
2022-09-28T07:47:38.958Z,10.93
2022-09-28T07:50:21.216Z,12.15
2022-09-28T07:53:02.179Z,13.10
2022-09-28T07:55:32.463Z,8.30
2022-09-28T07:58:09.194Z,9.38
2022-09-28T08:01:10.898Z,12.15
2022-09-28T08:03:39.831Z,12.55
2022-09-28T08:06:11.139Z,9.20
2022-09-28T08:08:43.800Z,10.43
2022-09-28T08:11:14.066Z,11.23
2022-09-28T08:14:00.113Z,10.32
2022-09-28T08:16:47.678Z,10.27
2022-09-28T08:19:25.664Z,15.95
2022-09-28T08:21:53.272Z,10.32
2022-09-28T08:24:21.097Z,15.45
2022-09-28T08:26:49.809Z,14.90
2022-09-28T08:29:18.252Z,12.73
2022-09-28T08:32:08.182Z,12.05
2022-09-28T08:34:40.297Z,6.45
2022-09-28T08:37:09.207Z,10.80
2022-09-28T08:40:17.614Z,15.02
2022-09-28T08:43:35.353Z,12.88
2022-09-28T08:46:27.378Z,13.77
2022-09-28T08:49:30.341Z,8.75
2022-09-28T08:52:23.566Z,14.77
2022-09-28T08:55:16.075Z,11.23
2022-09-28T08:57:51.594Z,10.30
2022-09-28T09:00:21.846Z,10.98
2022-09-28T09:02:49.515Z,13.57
2022-09-28T09:05:21.135Z,11.65
2022-09-28T09:08:42.368Z,12.00
2022-09-28T09:11:29.559Z,11.68
2022-09-28T09:14:08.944Z,8.75
2022-09-28T09:17:00.452Z,15.15
2022-09-28T09:20:02.240Z,8.40
2022-09-28T09:22:55.598Z,13.35
2022-09-28T09:25:40.379Z,12.50
2022-09-28T09:28:28.675Z,10.43
2022-09-28T09:31:08.877Z,13.07
2022-09-28T09:34:06.726Z,8.10
2022-09-28T09:37:01.214Z,10.85
2022-09-28T09:40:17.893Z,9.70
2022-09-28T09:43:31.555Z,12.82
2022-09-28T09:49:23.662Z,12.02
2022-09-28T09:52:10.239Z,14.02
2022-09-28T09:54:40.614Z,11.63
2022-09-28T09:57:27.117Z,7.40
2022-09-28T10:00:04.139Z,8.20
2022-09-28T10:02:55.300Z,10.15
2022-09-28T10:05:34.942Z,8.95
2022-09-28T10:08:15.125Z,8.98
2022-09-28T10:11:14.365Z,9.27
2022-09-28T10:13:49.266Z,10.77
2022-09-28T10:16:39.515Z,8.40
2022-09-28T10:19:13.313Z,7.82
2022-09-28T10:22:04.910Z,6.78
2022-09-28T10:24:36.045Z,7.50
2022-09-28T10:27:06.749Z,7.40
2022-09-28T10:29:43.126Z,8.50
2022-09-28T10:32:22.366Z,9.32
2022-09-28T10:34:53.121Z,10.90
2022-09-28T10:37:24.441Z,7.40
2022-09-28T10:40:05.760Z,8.43
2022-09-28T10:42:36.207Z,5.22
2022-09-28T10:45:20.126Z,7.35
2022-09-28T10:47:47.567Z,13.27
2022-09-28T10:50:24.735Z,10.77
2022-09-28T10:53:20.499Z,7.13
2022-09-28T10:56:20.577Z,8.35
2022-09-28T10:58:52.067Z,11.75
2022-09-28T11:01:40.008Z,15.18
2022-09-28T11:04:10.649Z,20.02
2022-09-28T11:06:40.113Z,14.43
2022-09-28T11:09:30.505Z,22.48
2022-09-28T11:12:04.561Z,17.70
2022-09-28T11:14:42.036Z,15.48
2022-09-28T11:17:29.434Z,15.60
2022-09-28T11:19:59.972Z,13.35
2022-09-28T11:25:16.489Z,21.33
2022-09-28T11:27:53.297Z,13.10
2022-09-28T11:30:43.631Z,15.20
2022-09-28T11:33:27.562Z,14.45
2022-09-28T11:36:18.925Z,9.63
2022-09-28T11:39:09.075Z,12.00
2022-09-28T11:42:05.191Z,5.53
2022-09-28T11:44:39.013Z,12.10
2022-09-28T11:47:25.305Z,9.55
2022-09-28T11:50:13.576Z,11.20
2022-09-28T11:52:50.401Z,14.30
2022-09-28T11:55:39.054Z,10.45
2022-09-28T11:58:19.932Z,11.23
2022-09-28T12:00:52.333Z,6.82
2022-09-28T12:03:26.649Z,7.20
2022-09-28T12:06:00.505Z,9.93
2022-09-28T12:08:31.045Z,8.82
2022-09-28T12:11:18.405Z,10.68
2022-09-28T12:14:20.649Z,8.35
2022-09-28T12:17:05.853Z,10.02
2022-09-28T12:19:39.228Z,9.57
2022-09-28T12:22:17.753Z,9.27
2022-09-28T12:24:51.396Z,6.13
2022-09-28T12:27:25.232Z,9.82
2022-09-28T12:30:04.086Z,9.52
2022-09-28T12:32:39.244Z,7.00
2022-09-28T12:35:15.182Z,9.70
2022-09-28T12:38:09.857Z,9.38
2022-09-28T12:41:01.799Z,18.05
2022-09-28T12:43:33.425Z,10.30
2022-09-28T12:46:13.079Z,8.93
2022-09-28T12:49:47.208Z,13.02
2022-09-28T12:51:54.848Z,12.23
2022-09-28T12:54:50.649Z,14.55
2022-09-28T12:57:30.148Z,11.13
2022-09-28T13:00:02.957Z,10.65
2022-09-28T13:02:51.943Z,7.95
2022-09-28T13:05:23.507Z,7.43
2022-09-28T13:07:54.560Z,7.28
2022-09-28T13:10:34.179Z,12.48
2022-09-28T13:13:01.448Z,9.77
2022-09-28T13:15:32.128Z,9.70
2022-09-28T13:18:20.950Z,14.00
2022-09-28T13:21:00.525Z,6.72
2022-09-28T13:23:34.031Z,11.18
2022-09-28T13:26:26.248Z,10.95
2022-09-28T13:28:56.164Z,9.32
2022-09-28T13:31:32.462Z,5.60
2022-09-28T13:34:03.027Z,10.43
2022-09-28T13:36:32.976Z,9.23
2022-09-28T13:39:01.031Z,9.00
2022-09-28T13:41:37.564Z,6.47
2022-09-28T13:44:13.603Z,7.75
2022-09-28T13:47:05.274Z,19.25
2022-09-28T13:49:52.659Z,14.13
2022-09-28T13:52:19.912Z,9.18
2022-09-28T13:55:03.617Z,6.65
2022-09-28T13:57:43.509Z,5.82
2022-09-28T14:00:10.765Z,7.38
2022-09-28T14:05:56.684Z,6.40
2022-09-28T14:08:44.944Z,7.53
2022-09-28T14:11:27.545Z,5.47
2022-09-28T14:14:00.297Z,6.50
2022-09-28T14:16:32.199Z,5.63
2022-09-28T14:19:05.863Z,3.30
2022-09-28T14:21:39.107Z,4.45
2022-09-28T14:24:22.947Z,8.82
2022-09-28T14:27:08.252Z,3.80
2022-09-28T14:29:37.779Z,3.83
2022-09-28T14:32:24.603Z,3.75
2022-09-28T14:34:58.513Z,5.43
2022-09-28T14:37:50.432Z,2.50
2022-09-28T14:40:48.657Z,4.03
2022-09-28T14:43:26.091Z,6.28
2022-09-28T14:46:17.631Z,4.60
2022-09-28T14:48:52.654Z,4.70
2022-09-28T14:51:30.207Z,5.30
2022-09-28T14:54:12.702Z,3.22
2022-09-28T14:56:51.926Z,4.30
2022-09-28T14:59:22.476Z,3.40
2022-09-28T15:02:07.984Z,5.82
2022-09-28T15:04:39.381Z,4.50
2022-09-28T15:07:06.629Z,2.80
2022-09-28T15:09:37.952Z,3.97
2022-09-28T15:12:15.177Z,3.97
2022-09-28T15:15:03.483Z,2.65
2022-09-28T15:17:40.441Z,4.78
2022-09-28T15:20:17.221Z,3.95
2022-09-28T15:22:49.626Z,4.85
2022-09-28T15:25:20.433Z,5.57
2022-09-28T15:27:52.852Z,7.13
2022-09-28T15:30:26.174Z,7.15
2022-09-28T15:32:56.807Z,6.10
2022-09-28T15:35:26.960Z,4.35
2022-09-28T15:40:22.421Z,5.00
2022-09-28T15:42:49.745Z,8.27
2022-09-28T15:45:32.143Z,4.00
2022-09-28T15:48:24.959Z,3.85
2022-09-28T15:50:58.114Z,7.32
2022-09-28T15:53:25.820Z,5.35
2022-09-28T15:55:54.725Z,4.68
2022-09-28T15:58:24.253Z,10.00
2022-09-28T16:01:20.106Z,5.63
2022-09-28T16:03:47.346Z,5.25
2022-09-28T16:06:14.707Z,9.13
2022-09-28T16:08:48.435Z,8.60
2022-09-28T16:11:24.407Z,4.32
2022-09-28T16:13:56.414Z,7.28
2022-09-28T16:16:29.869Z,6.35
2022-09-28T16:18:58.831Z,6.60
2022-09-28T16:21:28.601Z,5.72
2022-09-28T16:23:55.914Z,4.70
2022-09-28T16:26:32.218Z,5.65
2022-09-28T16:28:59.817Z,5.47
2022-09-28T16:31:33.702Z,5.45
2022-09-28T16:34:20.092Z,5.82
2022-09-28T16:36:48.954Z,3.22
2022-09-28T16:39:17.421Z,5.40
2022-09-28T16:41:56.153Z,4.05
2022-09-28T16:44:29.322Z,2.83
2022-09-28T16:46:57.702Z,6.22
2022-09-28T16:49:25.588Z,5.22
2022-09-28T16:51:52.976Z,4.57
2022-09-28T16:54:41.350Z,4.18
2022-09-28T16:57:11.985Z,2.97
2022-09-28T16:59:39.441Z,4.50
2022-09-28T17:05:13.420Z,5.22
2022-09-28T17:07:40.766Z,4.67
2022-09-28T17:10:56.041Z,4.88
2022-09-28T17:13:33.962Z,4.78
2022-09-28T17:16:11.124Z,5.35
2022-09-28T17:18:39.667Z,4.72
2022-09-28T17:21:11.542Z,4.35
2022-09-28T17:23:39.111Z,5.25
2022-09-28T17:26:06.524Z,7.82
2022-09-28T17:28:35.857Z,4.82
2022-09-28T17:31:04.339Z,5.77
2022-09-28T17:33:31.633Z,3.88
2022-09-28T17:36:01.026Z,4.25
2022-09-28T17:38:28.506Z,3.95
2022-09-28T17:40:55.817Z,6.45
2022-09-28T17:43:23.273Z,4.97
2022-09-28T17:45:50.697Z,4.93
2022-09-28T17:48:23.377Z,5.78
2022-09-28T17:50:51.765Z,6.30
2022-09-28T17:53:19.647Z,6.13
2022-09-28T17:55:46.952Z,7.10
2022-09-28T17:58:19.280Z,5.07
2022-09-28T18:00:47.695Z,5.80
2022-09-28T18:03:20.623Z,6.32
2022-09-28T18:05:50.843Z,4.32
2022-09-28T18:10:48.670Z,5.35
2022-09-28T18:15:43.109Z,9.07
2022-09-28T18:18:10.446Z,6.68
2022-09-28T18:20:37.787Z,5.65
2022-09-28T18:23:05.001Z,3.38
2022-09-28T18:25:32.316Z,4.78
2022-09-28T18:28:00.145Z,3.42
2022-09-28T18:30:28.058Z,6.38
2022-09-28T18:32:55.249Z,7.93
2022-09-28T18:35:23.354Z,8.15
2022-09-28T18:37:50.671Z,8.20
2022-09-28T18:40:17.993Z,13.10
2022-09-28T18:42:45.212Z,11.05
2022-09-28T18:45:12.444Z,15.25
2022-09-28T18:47:39.987Z,7.38
2022-09-28T18:50:08.100Z,8.30
2022-09-28T18:52:36.926Z,8.68
2022-09-28T18:55:05.736Z,6.35
2022-09-28T18:57:35.932Z,7.53
2022-09-28T19:00:11.566Z,7.60
2022-09-28T19:02:39.230Z,34.28
2022-09-28T19:05:07.112Z,7.82
2022-09-28T19:07:35.557Z,8.25
2022-09-28T19:10:03.107Z,21.58
2022-09-28T19:12:30.464Z,30.15
2022-09-28T19:14:59.934Z,27.52
2022-09-28T19:17:27.308Z,27.05
2022-09-28T19:19:55.617Z,23.70
2022-09-28T19:22:22.956Z,23.10
2022-09-28T19:24:50.169Z,37.83
2022-09-28T19:27:17.611Z,20.05
2022-09-28T19:29:44.848Z,22.38
2022-09-28T19:32:12.673Z,12.63
2022-09-28T19:34:40.087Z,12.55
2022-09-28T19:37:07.328Z,15.95
2022-09-28T19:39:34.705Z,15.80
2022-09-28T19:42:01.920Z,13.27
2022-09-28T19:44:30.106Z,14.60
2022-09-28T19:46:59.014Z,21.80
2022-09-28T19:49:27.813Z,18.33
2022-09-28T19:52:13.937Z,18.20
2022-09-28T19:54:54.371Z,14.80
2022-09-28T19:57:22.682Z,13.77
2022-09-28T19:59:52.714Z,13.95
2022-09-28T20:02:21.315Z,12.18
2022-09-28T20:04:48.930Z,13.95
2022-09-28T20:07:16.198Z,12.85
2022-09-28T20:09:43.447Z,13.80
2022-09-28T20:12:11.198Z,10.85
2022-09-28T20:14:40.416Z,12.02
2022-09-28T20:17:08.095Z,9.35
2022-09-28T20:19:36.193Z,11.23
2022-09-28T20:22:04.034Z,11.98
2022-09-28T20:24:32.005Z,9.85
2022-09-28T20:26:59.378Z,11.88
2022-09-28T20:29:26.817Z,13.25
2022-09-28T20:31:54.133Z,10.02
2022-09-28T20:34:21.345Z,9.20
2022-09-28T20:36:50.456Z,9.75
2022-09-28T20:39:17.919Z,11.07
2022-09-28T20:41:46.606Z,9.90
2022-09-28T20:44:13.840Z,12.48
2022-09-28T20:46:41.187Z,12.23
2022-09-28T20:49:08.551Z,11.57
2022-09-28T20:51:35.885Z,7.97
2022-09-28T20:54:03.129Z,12.57
2022-09-28T20:56:37.586Z,8.48
2022-09-28T20:59:07.015Z,8.52
2022-09-28T21:01:35.140Z,13.53
2022-09-28T21:04:04.272Z,9.48
2022-09-28T21:06:33.560Z,7.90
2022-09-28T21:09:01.163Z,7.10
2022-09-28T21:11:29.707Z,7.00
2022-09-28T21:13:59.391Z,10.98
2022-09-28T21:16:29.095Z,9.80
2022-09-28T21:18:56.709Z,9.73
2022-09-28T21:21:24.882Z,8.07
2022-09-28T21:23:56.400Z,7.18
2022-09-28T21:26:26.350Z,9.55
2022-09-28T21:28:54.816Z,9.90
2022-09-28T21:31:28.494Z,8.80
2022-09-28T21:33:59.389Z,10.05
2022-09-28T21:36:26.635Z,8.40
2022-09-28T21:38:55.506Z,12.48
2022-09-28T21:41:25.048Z,7.40
2022-09-28T21:43:52.569Z,9.70
2022-09-28T21:46:20.233Z,11.10
2022-09-28T21:48:51.846Z,6.75
2022-09-28T21:51:19.500Z,9.02
2022-09-28T21:53:48.470Z,10.88
2022-09-28T21:56:15.749Z,9.20
2022-09-28T21:58:42.903Z,11.43
2022-09-28T22:01:19.709Z,10.10
2022-09-28T22:03:49.287Z,9.77
2022-09-28T22:06:18.404Z,10.18
2022-09-28T22:08:46.915Z,9.43
2022-09-28T22:11:26.375Z,9.82
2022-09-28T22:13:56.069Z,11.10
2022-09-28T22:16:26.046Z,7.45
2022-09-28T22:18:53.714Z,7.63
2022-09-28T22:21:32.730Z,8.80
2022-09-28T22:24:02.027Z,8.10
2022-09-28T22:26:31.464Z,6.47
2022-09-28T22:29:00.974Z,7.35
2022-09-28T22:31:36.413Z,9.38
2022-09-28T22:34:04.673Z,8.85
2022-09-28T22:36:32.260Z,7.93
2022-09-28T22:38:59.984Z,6.65
2022-09-28T22:41:27.466Z,9.55
2022-09-28T22:43:54.811Z,8.35
2022-09-28T22:46:27.289Z,6.95
2022-09-28T22:48:56.654Z,8.27
2022-09-28T22:51:25.179Z,7.70
2022-09-28T22:53:52.753Z,6.82
2022-09-28T22:56:19.952Z,8.07
2022-09-28T22:58:47.586Z,8.43
2022-09-28T23:01:21.061Z,11.27
2022-09-28T23:03:49.713Z,8.98
2022-09-28T23:06:19.201Z,7.70
2022-09-28T23:08:47.430Z,10.45
2022-09-28T23:11:15.291Z,10.75
2022-09-28T23:13:42.712Z,7.95
2022-09-28T23:16:14.800Z,7.53
2022-09-28T23:18:42.222Z,6.65
2022-09-28T23:21:15.391Z,6.70
2022-09-28T23:23:43.791Z,12.50
2022-09-28T23:26:12.267Z,7.20
2022-09-28T23:28:39.681Z,6.72
2022-09-28T23:31:16.447Z,7.70
2022-09-28T23:33:43.992Z,8.27
2022-09-28T23:36:11.655Z,7.03
2022-09-28T23:38:39.375Z,6.15
2022-09-28T23:41:06.744Z,8.18
2022-09-28T23:43:34.537Z,7.07
2022-09-28T23:46:02.842Z,8.93
2022-09-28T23:48:30.277Z,6.00
2022-09-28T23:50:57.856Z,5.25
2022-09-28T23:53:25.299Z,8.88
2022-09-28T23:55:52.841Z,7.88
2022-09-28T23:58:20.731Z,8.35
